sensor_id;sensor_type;location;lat;lon;timestamp;temperature;humidity
52575;DHT22;38468;48.114;-1.684;2022-11-12T00:01:48;10.70;83.20
52575;DHT22;38468;48.114;-1.684;2022-11-12T00:03:48;10.70;83.20
52575;DHT22;38468;48.114;-1.684;2022-11-12T00:05:49;10.70;83.20
52575;DHT22;38468;48.114;-1.684;2022-11-12T00:07:51;10.70;83.20
52575;DHT22;38468;48.114;-1.684;2022-11-12T00:09:51;10.70;83.20
52575;DHT22;38468;48.114;-1.684;2022-11-12T00:11:52;10.80;83.20
52575;DHT22;38468;48.114;-1.684;2022-11-12T00:13:53;10.70;83.20
52575;DHT22;38468;48.114;-1.684;2022-11-12T00:15:53;10.70;83.20
52575;DHT22;38468;48.114;-1.684;2022-11-12T00:17:54;10.70;83.20
52575;DHT22;38468;48.114;-1.684;2022-11-12T00:19:55;10.70;83.20
52575;DHT22;38468;48.114;-1.684;2022-11-12T00:21:55;10.70;83.20
52575;DHT22;38468;48.114;-1.684;2022-11-12T00:23:56;10.70;83.20
52575;DHT22;38468;48.114;-1.684;2022-11-12T00:25:58;10.70;83.30
52575;DHT22;38468;48.114;-1.684;2022-11-12T00:28:08;10.70;83.30
52575;DHT22;38468;48.114;-1.684;2022-11-12T00:30:09;10.70;83.40
52575;DHT22;38468;48.114;-1.684;2022-11-12T00:32:10;10.70;83.40
52575;DHT22;38468;48.114;-1.684;2022-11-12T00:34:11;10.70;83.40
52575;DHT22;38468;48.114;-1.684;2022-11-12T00:36:12;10.70;83.30
52575;DHT22;38468;48.114;-1.684;2022-11-12T00:38:12;10.70;83.40
52575;DHT22;38468;48.114;-1.684;2022-11-12T00:40:13;10.80;83.30
52575;DHT22;38468;48.114;-1.684;2022-11-12T00:42:14;10.70;83.30
52575;DHT22;38468;48.114;-1.684;2022-11-12T00:44:15;10.70;83.30
52575;DHT22;38468;48.114;-1.684;2022-11-12T00:46:15;10.70;83.30
52575;DHT22;38468;48.114;-1.684;2022-11-12T00:48:16;10.70;83.30
52575;DHT22;38468;48.114;-1.684;2022-11-12T00:50:17;10.70;83.30
52575;DHT22;38468;48.114;-1.684;2022-11-12T00:52:17;10.70;83.30
52575;DHT22;38468;48.114;-1.684;2022-11-12T00:54:18;10.70;83.30
52575;DHT22;38468;48.114;-1.684;2022-11-12T00:56:19;10.70;83.30
52575;DHT22;38468;48.114;-1.684;2022-11-12T00:58:19;10.70;83.40
52575;DHT22;38468;48.114;-1.684;2022-11-12T01:00:20;10.70;83.50
52575;DHT22;38468;48.114;-1.684;2022-11-12T01:02:21;10.70;83.50
52575;DHT22;38468;48.114;-1.684;2022-11-12T01:04:21;10.70;83.50
52575;DHT22;38468;48.114;-1.684;2022-11-12T01:06:22;10.70;83.40
52575;DHT22;38468;48.114;-1.684;2022-11-12T01:08:23;10.70;83.40
52575;DHT22;38468;48.114;-1.684;2022-11-12T01:10:24;10.70;83.40
52575;DHT22;38468;48.114;-1.684;2022-11-12T01:12:24;10.70;83.50
52575;DHT22;38468;48.114;-1.684;2022-11-12T01:14:25;10.70;83.50
52575;DHT22;38468;48.114;-1.684;2022-11-12T01:16:33;10.70;83.50
52575;DHT22;38468;48.114;-1.684;2022-11-12T01:18:34;10.70;83.50
52575;DHT22;38468;48.114;-1.684;2022-11-12T01:20:37;10.70;83.50
52575;DHT22;38468;48.114;-1.684;2022-11-12T01:22:39;10.70;83.40
52575;DHT22;38468;48.114;-1.684;2022-11-12T01:24:40;10.70;83.40
52575;DHT22;38468;48.114;-1.684;2022-11-12T01:26:40;10.80;83.40
52575;DHT22;38468;48.114;-1.684;2022-11-12T01:28:42;10.80;83.40
52575;DHT22;38468;48.114;-1.684;2022-11-12T01:30:42;10.70;83.40
52575;DHT22;38468;48.114;-1.684;2022-11-12T01:32:43;10.70;83.50
52575;DHT22;38468;48.114;-1.684;2022-11-12T01:34:44;10.70;83.70
52575;DHT22;38468;48.114;-1.684;2022-11-12T01:36:44;10.70;83.60
52575;DHT22;38468;48.114;-1.684;2022-11-12T01:38:46;10.70;83.60
52575;DHT22;38468;48.114;-1.684;2022-11-12T01:40:47;10.70;83.60
52575;DHT22;38468;48.114;-1.684;2022-11-12T01:42:52;10.70;83.60
52575;DHT22;38468;48.114;-1.684;2022-11-12T01:44:53;10.80;83.60
52575;DHT22;38468;48.114;-1.684;2022-11-12T01:47:21;10.70;83.60
52575;DHT22;38468;48.114;-1.684;2022-11-12T01:49:27;10.70;83.50
52575;DHT22;38468;48.114;-1.684;2022-11-12T01:51:35;10.70;83.50
52575;DHT22;38468;48.114;-1.684;2022-11-12T01:53:41;10.80;83.50
52575;DHT22;38468;48.114;-1.684;2022-11-12T01:55:42;10.80;83.50
52575;DHT22;38468;48.114;-1.684;2022-11-12T01:58:11;10.70;83.60
52575;DHT22;38468;48.114;-1.684;2022-11-12T02:00:11;10.80;83.60
52575;DHT22;38468;48.114;-1.684;2022-11-12T02:02:12;10.70;83.60
52575;DHT22;38468;48.114;-1.684;2022-11-12T02:04:13;10.70;83.60
52575;DHT22;38468;48.114;-1.684;2022-11-12T02:06:15;10.70;83.60
52575;DHT22;38468;48.114;-1.684;2022-11-12T02:08:16;10.70;83.50
52575;DHT22;38468;48.114;-1.684;2022-11-12T02:10:19;10.70;83.50
52575;DHT22;38468;48.114;-1.684;2022-11-12T02:12:20;10.70;83.60
52575;DHT22;38468;48.114;-1.684;2022-11-12T02:14:39;10.70;83.60
52575;DHT22;38468;48.114;-1.684;2022-11-12T02:16:41;10.70;83.60
52575;DHT22;38468;48.114;-1.684;2022-11-12T02:18:43;10.70;83.70
52575;DHT22;38468;48.114;-1.684;2022-11-12T02:20:44;10.70;83.70
52575;DHT22;38468;48.114;-1.684;2022-11-12T02:22:44;10.70;83.60
52575;DHT22;38468;48.114;-1.684;2022-11-12T02:24:45;10.80;83.60
52575;DHT22;38468;48.114;-1.684;2022-11-12T02:26:50;10.70;83.60
52575;DHT22;38468;48.114;-1.684;2022-11-12T02:28:52;10.70;83.70
52575;DHT22;38468;48.114;-1.684;2022-11-12T02:30:53;10.70;83.70
52575;DHT22;38468;48.114;-1.684;2022-11-12T02:32:53;10.70;83.70
52575;DHT22;38468;48.114;-1.684;2022-11-12T02:34:54;10.70;83.70
52575;DHT22;38468;48.114;-1.684;2022-11-12T02:36:55;10.70;83.70
52575;DHT22;38468;48.114;-1.684;2022-11-12T02:38:56;10.70;83.80
52575;DHT22;38468;48.114;-1.684;2022-11-12T02:40:57;10.70;83.90
52575;DHT22;38468;48.114;-1.684;2022-11-12T02:42:57;10.70;83.80
52575;DHT22;38468;48.114;-1.684;2022-11-12T02:44:59;10.70;83.80
52575;DHT22;38468;48.114;-1.684;2022-11-12T02:46:59;10.70;83.70
52575;DHT22;38468;48.114;-1.684;2022-11-12T02:49:00;10.70;83.70
52575;DHT22;38468;48.114;-1.684;2022-11-12T02:51:01;10.70;83.70
52575;DHT22;38468;48.114;-1.684;2022-11-12T02:53:02;10.70;83.70
52575;DHT22;38468;48.114;-1.684;2022-11-12T02:55:03;10.70;83.80
52575;DHT22;38468;48.114;-1.684;2022-11-12T02:57:03;10.70;83.80
52575;DHT22;38468;48.114;-1.684;2022-11-12T02:59:04;10.70;83.80
52575;DHT22;38468;48.114;-1.684;2022-11-12T03:01:05;10.70;83.70
52575;DHT22;38468;48.114;-1.684;2022-11-12T03:03:05;10.70;83.70
52575;DHT22;38468;48.114;-1.684;2022-11-12T03:05:10;10.70;83.70
52575;DHT22;38468;48.114;-1.684;2022-11-12T03:07:10;10.70;83.80
52575;DHT22;38468;48.114;-1.684;2022-11-12T03:09:11;10.70;83.80
52575;DHT22;38468;48.114;-1.684;2022-11-12T03:11:15;10.70;83.80
52575;DHT22;38468;48.114;-1.684;2022-11-12T03:13:15;10.70;83.80
52575;DHT22;38468;48.114;-1.684;2022-11-12T03:15:16;10.70;83.90
52575;DHT22;38468;48.114;-1.684;2022-11-12T03:17:17;10.70;83.90
52575;DHT22;38468;48.114;-1.684;2022-11-12T03:19:18;10.70;84.00
52575;DHT22;38468;48.114;-1.684;2022-11-12T03:21:18;10.70;83.90
52575;DHT22;38468;48.114;-1.684;2022-11-12T03:23:19;10.70;83.90
52575;DHT22;38468;48.114;-1.684;2022-11-12T03:25:20;10.70;84.00
52575;DHT22;38468;48.114;-1.684;2022-11-12T03:27:20;10.70;83.90
52575;DHT22;38468;48.114;-1.684;2022-11-12T03:29:21;10.70;84.00
52575;DHT22;38468;48.114;-1.684;2022-11-12T03:31:21;10.60;84.00
52575;DHT22;38468;48.114;-1.684;2022-11-12T03:33:22;10.70;83.90
52575;DHT22;38468;48.114;-1.684;2022-11-12T03:35:23;10.70;83.90
52575;DHT22;38468;48.114;-1.684;2022-11-12T03:37:24;10.70;83.90
52575;DHT22;38468;48.114;-1.684;2022-11-12T03:39:24;10.70;83.90
52575;DHT22;38468;48.114;-1.684;2022-11-12T03:41:25;10.70;83.90
52575;DHT22;38468;48.114;-1.684;2022-11-12T03:43:25;10.70;83.80
52575;DHT22;38468;48.114;-1.684;2022-11-12T03:45:27;10.70;83.80
52575;DHT22;38468;48.114;-1.684;2022-11-12T03:47:27;10.70;83.80
52575;DHT22;38468;48.114;-1.684;2022-11-12T03:49:28;10.70;83.90
52575;DHT22;38468;48.114;-1.684;2022-11-12T03:51:29;10.70;83.90
52575;DHT22;38468;48.114;-1.684;2022-11-12T03:53:29;10.80;83.90
52575;DHT22;38468;48.114;-1.684;2022-11-12T03:55:30;10.80;84.00
52575;DHT22;38468;48.114;-1.684;2022-11-12T03:57:31;10.70;84.00
52575;DHT22;38468;48.114;-1.684;2022-11-12T03:59:32;10.80;83.90
52575;DHT22;38468;48.114;-1.684;2022-11-12T04:01:32;10.80;84.00
52575;DHT22;38468;48.114;-1.684;2022-11-12T04:03:33;10.80;84.00
52575;DHT22;38468;48.114;-1.684;2022-11-12T04:05:34;10.80;84.00
52575;DHT22;38468;48.114;-1.684;2022-11-12T04:08:05;10.70;84.00
52575;DHT22;38468;48.114;-1.684;2022-11-12T04:10:24;10.80;84.00
52575;DHT22;38468;48.114;-1.684;2022-11-12T04:12:25;10.70;84.00
52575;DHT22;38468;48.114;-1.684;2022-11-12T04:14:44;10.80;84.00
52575;DHT22;38468;48.114;-1.684;2022-11-12T04:16:45;10.80;84.00
52575;DHT22;38468;48.114;-1.684;2022-11-12T04:19:05;10.70;84.00
52575;DHT22;38468;48.114;-1.684;2022-11-12T04:21:37;10.70;84.10
52575;DHT22;38468;48.114;-1.684;2022-11-12T04:23:50;10.70;84.20
52575;DHT22;38468;48.114;-1.684;2022-11-12T04:25:51;10.70;84.10
52575;DHT22;38468;48.114;-1.684;2022-11-12T04:28:10;10.70;84.00
52575;DHT22;38468;48.114;-1.684;2022-11-12T04:30:11;10.70;84.00
52575;DHT22;38468;48.114;-1.684;2022-11-12T04:32:19;10.60;84.00
52575;DHT22;38468;48.114;-1.684;2022-11-12T04:34:19;10.70;84.10
52575;DHT22;38468;48.114;-1.684;2022-11-12T04:36:29;10.60;84.10
52575;DHT22;38468;48.114;-1.684;2022-11-12T04:38:30;10.60;84.10
52575;DHT22;38468;48.114;-1.684;2022-11-12T04:40:31;10.60;84.10
52575;DHT22;38468;48.114;-1.684;2022-11-12T04:42:50;10.70;84.10
52575;DHT22;38468;48.114;-1.684;2022-11-12T04:45:10;10.60;84.10
52575;DHT22;38468;48.114;-1.684;2022-11-12T04:47:10;10.70;84.10
52575;DHT22;38468;48.114;-1.684;2022-11-12T04:49:11;10.60;84.10
52575;DHT22;38468;48.114;-1.684;2022-11-12T04:51:12;10.60;84.20
52575;DHT22;38468;48.114;-1.684;2022-11-12T04:53:31;10.60;84.20
52575;DHT22;38468;48.114;-1.684;2022-11-12T04:55:31;10.70;84.20
52575;DHT22;38468;48.114;-1.684;2022-11-12T04:57:32;10.60;84.10
52575;DHT22;38468;48.114;-1.684;2022-11-12T04:59:33;10.60;84.10
52575;DHT22;38468;48.114;-1.684;2022-11-12T05:01:33;10.60;84.10
52575;DHT22;38468;48.114;-1.684;2022-11-12T05:03:34;10.70;84.20
52575;DHT22;38468;48.114;-1.684;2022-11-12T05:05:35;10.60;84.20
52575;DHT22;38468;48.114;-1.684;2022-11-12T05:07:35;10.60;84.20
52575;DHT22;38468;48.114;-1.684;2022-11-12T05:09:36;10.60;84.20
52575;DHT22;38468;48.114;-1.684;2022-11-12T05:11:37;10.60;84.20
52575;DHT22;38468;48.114;-1.684;2022-11-12T05:13:38;10.60;84.20
52575;DHT22;38468;48.114;-1.684;2022-11-12T05:15:39;10.60;84.20
52575;DHT22;38468;48.114;-1.684;2022-11-12T05:17:43;10.60;84.20
52575;DHT22;38468;48.114;-1.684;2022-11-12T05:19:43;10.60;84.20
52575;DHT22;38468;48.114;-1.684;2022-11-12T05:21:44;10.60;84.20
52575;DHT22;38468;48.114;-1.684;2022-11-12T05:24:04;10.70;84.20
52575;DHT22;38468;48.114;-1.684;2022-11-12T05:26:05;10.70;84.20
52575;DHT22;38468;48.114;-1.684;2022-11-12T05:28:05;10.60;84.10
52575;DHT22;38468;48.114;-1.684;2022-11-12T05:30:06;10.70;84.20
52575;DHT22;38468;48.114;-1.684;2022-11-12T05:32:10;10.60;84.20
52575;DHT22;38468;48.114;-1.684;2022-11-12T05:34:11;10.60;84.20
52575;DHT22;38468;48.114;-1.684;2022-11-12T05:36:11;10.60;84.30
52575;DHT22;38468;48.114;-1.684;2022-11-12T05:38:12;10.60;84.20
52575;DHT22;38468;48.114;-1.684;2022-11-12T05:40:13;10.60;84.30
52575;DHT22;38468;48.114;-1.684;2022-11-12T05:42:13;10.60;84.30
52575;DHT22;38468;48.114;-1.684;2022-11-12T05:44:14;10.60;84.30
52575;DHT22;38468;48.114;-1.684;2022-11-12T05:46:15;10.60;84.30
52575;DHT22;38468;48.114;-1.684;2022-11-12T05:48:15;10.60;84.40
52575;DHT22;38468;48.114;-1.684;2022-11-12T05:50:16;10.60;84.40
52575;DHT22;38468;48.114;-1.684;2022-11-12T05:52:17;10.50;84.30
52575;DHT22;38468;48.114;-1.684;2022-11-12T05:54:17;10.60;84.30
52575;DHT22;38468;48.114;-1.684;2022-11-12T05:56:18;10.60;84.30
52575;DHT22;38468;48.114;-1.684;2022-11-12T05:58:19;10.50;84.20
52575;DHT22;38468;48.114;-1.684;2022-11-12T06:00:20;10.60;84.30
52575;DHT22;38468;48.114;-1.684;2022-11-12T06:02:21;10.60;84.20
52575;DHT22;38468;48.114;-1.684;2022-11-12T06:04:21;10.60;84.30
52575;DHT22;38468;48.114;-1.684;2022-11-12T06:06:23;10.50;84.30
52575;DHT22;38468;48.114;-1.684;2022-11-12T06:08:24;10.60;84.30
52575;DHT22;38468;48.114;-1.684;2022-11-12T06:10:25;10.50;84.30
52575;DHT22;38468;48.114;-1.684;2022-11-12T06:12:25;10.50;84.40
52575;DHT22;38468;48.114;-1.684;2022-11-12T06:14:26;10.50;84.40
52575;DHT22;38468;48.114;-1.684;2022-11-12T06:16:27;10.50;84.40
52575;DHT22;38468;48.114;-1.684;2022-11-12T06:18:28;10.50;84.30
52575;DHT22;38468;48.114;-1.684;2022-11-12T06:20:28;10.60;84.30
52575;DHT22;38468;48.114;-1.684;2022-11-12T06:22:29;10.50;84.40
52575;DHT22;38468;48.114;-1.684;2022-11-12T06:24:36;10.50;84.40
52575;DHT22;38468;48.114;-1.684;2022-11-12T06:26:36;10.50;84.30
52575;DHT22;38468;48.114;-1.684;2022-11-12T06:28:37;10.50;84.30
52575;DHT22;38468;48.114;-1.684;2022-11-12T06:30:38;10.50;84.40
52575;DHT22;38468;48.114;-1.684;2022-11-12T06:32:39;10.50;84.50
52575;DHT22;38468;48.114;-1.684;2022-11-12T06:34:40;10.50;84.50
52575;DHT22;38468;48.114;-1.684;2022-11-12T06:36:40;10.50;84.60
52575;DHT22;38468;48.114;-1.684;2022-11-12T06:38:42;10.50;84.60
52575;DHT22;38468;48.114;-1.684;2022-11-12T06:40:42;10.50;84.50
52575;DHT22;38468;48.114;-1.684;2022-11-12T06:42:43;10.50;84.50
52575;DHT22;38468;48.114;-1.684;2022-11-12T06:44:44;10.40;84.60
52575;DHT22;38468;48.114;-1.684;2022-11-12T06:46:44;10.40;84.60
52575;DHT22;38468;48.114;-1.684;2022-11-12T06:48:45;10.40;84.60
52575;DHT22;38468;48.114;-1.684;2022-11-12T06:50:45;10.40;84.60
52575;DHT22;38468;48.114;-1.684;2022-11-12T06:52:46;10.40;84.60
52575;DHT22;38468;48.114;-1.684;2022-11-12T06:54:47;10.40;84.60
52575;DHT22;38468;48.114;-1.684;2022-11-12T06:56:48;10.40;84.50
52575;DHT22;38468;48.114;-1.684;2022-11-12T06:58:48;10.40;84.60
52575;DHT22;38468;48.114;-1.684;2022-11-12T07:00:49;10.40;84.50
52575;DHT22;38468;48.114;-1.684;2022-11-12T07:02:49;10.40;84.50
52575;DHT22;38468;48.114;-1.684;2022-11-12T07:04:50;10.40;84.60
52575;DHT22;38468;48.114;-1.684;2022-11-12T07:06:51;10.40;84.60
52575;DHT22;38468;48.114;-1.684;2022-11-12T07:08:51;10.40;84.60
52575;DHT22;38468;48.114;-1.684;2022-11-12T07:10:56;10.40;84.60
52575;DHT22;38468;48.114;-1.684;2022-11-12T07:12:57;10.40;84.60
52575;DHT22;38468;48.114;-1.684;2022-11-12T07:14:57;10.40;84.60
52575;DHT22;38468;48.114;-1.684;2022-11-12T07:16:58;10.40;84.60
52575;DHT22;38468;48.114;-1.684;2022-11-12T07:18:59;10.40;84.60
52575;DHT22;38468;48.114;-1.684;2022-11-12T07:21:01;10.40;84.70
52575;DHT22;38468;48.114;-1.684;2022-11-12T07:23:02;10.40;84.70
52575;DHT22;38468;48.114;-1.684;2022-11-12T07:25:03;10.40;84.60
52575;DHT22;38468;48.114;-1.684;2022-11-12T07:27:03;10.40;84.60
52575;DHT22;38468;48.114;-1.684;2022-11-12T07:29:04;10.40;84.60
52575;DHT22;38468;48.114;-1.684;2022-11-12T07:31:08;10.40;84.60
52575;DHT22;38468;48.114;-1.684;2022-11-12T07:33:09;10.40;84.70
52575;DHT22;38468;48.114;-1.684;2022-11-12T07:35:10;10.40;84.70
52575;DHT22;38468;48.114;-1.684;2022-11-12T07:37:11;10.40;84.70
52575;DHT22;38468;48.114;-1.684;2022-11-12T07:39:21;10.50;84.70
52575;DHT22;38468;48.114;-1.684;2022-11-12T07:41:23;10.50;84.80
52575;DHT22;38468;48.114;-1.684;2022-11-12T07:43:24;10.50;84.80
52575;DHT22;38468;48.114;-1.684;2022-11-12T07:45:25;10.50;84.80
52575;DHT22;38468;48.114;-1.684;2022-11-12T07:47:26;10.50;84.80
52575;DHT22;38468;48.114;-1.684;2022-11-12T07:49:27;10.50;84.90
52575;DHT22;38468;48.114;-1.684;2022-11-12T07:51:28;10.50;84.90
52575;DHT22;38468;48.114;-1.684;2022-11-12T07:53:29;10.50;84.90
52575;DHT22;38468;48.114;-1.684;2022-11-12T07:55:30;10.60;84.90
52575;DHT22;38468;48.114;-1.684;2022-11-12T07:57:32;10.60;84.90
52575;DHT22;38468;48.114;-1.684;2022-11-12T07:59:33;10.60;84.90
52575;DHT22;38468;48.114;-1.684;2022-11-12T08:01:38;10.70;84.90
52575;DHT22;38468;48.114;-1.684;2022-11-12T08:03:48;10.70;84.90
52575;DHT22;38468;48.114;-1.684;2022-11-12T08:05:49;10.80;84.90
52575;DHT22;38468;48.114;-1.684;2022-11-12T08:07:50;10.80;84.90
52575;DHT22;38468;48.114;-1.684;2022-11-12T08:09:50;10.90;84.90
52575;DHT22;38468;48.114;-1.684;2022-11-12T08:11:53;10.90;85.00
52575;DHT22;38468;48.114;-1.684;2022-11-12T08:13:53;10.90;85.00
52575;DHT22;38468;48.114;-1.684;2022-11-12T08:15:56;11.00;85.00
52575;DHT22;38468;48.114;-1.684;2022-11-12T08:17:57;11.10;84.90
52575;DHT22;38468;48.114;-1.684;2022-11-12T08:19:58;11.10;84.90
52575;DHT22;38468;48.114;-1.684;2022-11-12T08:21:59;11.20;84.90
52575;DHT22;38468;48.114;-1.684;2022-11-12T08:23:59;11.30;85.00
52575;DHT22;38468;48.114;-1.684;2022-11-12T08:26:02;11.40;85.00
52575;DHT22;38468;48.114;-1.684;2022-11-12T08:28:02;11.50;85.00
52575;DHT22;38468;48.114;-1.684;2022-11-12T08:30:04;11.70;85.20
52575;DHT22;38468;48.114;-1.684;2022-11-12T08:32:05;11.90;85.20
52575;DHT22;38468;48.114;-1.684;2022-11-12T08:34:05;12.10;85.30
52575;DHT22;38468;48.114;-1.684;2022-11-12T08:36:14;12.40;85.40
52575;DHT22;38468;48.114;-1.684;2022-11-12T08:38:15;12.60;85.40
52575;DHT22;38468;48.114;-1.684;2022-11-12T08:40:17;12.80;85.50
52575;DHT22;38468;48.114;-1.684;2022-11-12T08:42:18;13.10;85.60
52575;DHT22;38468;48.114;-1.684;2022-11-12T08:44:18;13.40;85.70
52575;DHT22;38468;48.114;-1.684;2022-11-12T08:46:19;13.60;85.50
52575;DHT22;38468;48.114;-1.684;2022-11-12T08:48:20;13.80;85.60
52575;DHT22;38468;48.114;-1.684;2022-11-12T08:50:20;14.00;85.40
52575;DHT22;38468;48.114;-1.684;2022-11-12T08:52:21;14.30;85.40
52575;DHT22;38468;48.114;-1.684;2022-11-12T08:54:22;14.50;85.50
52575;DHT22;38468;48.114;-1.684;2022-11-12T08:56:22;14.80;85.20
52575;DHT22;38468;48.114;-1.684;2022-11-12T08:58:24;15.00;85.50
52575;DHT22;38468;48.114;-1.684;2022-11-12T09:00:25;15.20;84.70
52575;DHT22;38468;48.114;-1.684;2022-11-12T09:02:26;15.50;85.00
52575;DHT22;38468;48.114;-1.684;2022-11-12T09:04:27;15.80;85.40
52575;DHT22;38468;48.114;-1.684;2022-11-12T09:06:28;16.10;85.60
52575;DHT22;38468;48.114;-1.684;2022-11-12T09:08:28;16.20;85.10
52575;DHT22;38468;48.114;-1.684;2022-11-12T09:10:29;16.40;85.30
52575;DHT22;38468;48.114;-1.684;2022-11-12T09:12:30;16.50;84.60
52575;DHT22;38468;48.114;-1.684;2022-11-12T09:14:30;16.70;84.80
52575;DHT22;38468;48.114;-1.684;2022-11-12T09:16:31;16.80;83.00
52575;DHT22;38468;48.114;-1.684;2022-11-12T09:18:32;17.00;83.60
52575;DHT22;38468;48.114;-1.684;2022-11-12T09:20:33;17.20;83.80
52575;DHT22;38468;48.114;-1.684;2022-11-12T09:22:34;17.40;83.70
52575;DHT22;38468;48.114;-1.684;2022-11-12T09:24:34;17.50;82.90
52575;DHT22;38468;48.114;-1.684;2022-11-12T09:26:35;17.50;83.50
52575;DHT22;38468;48.114;-1.684;2022-11-12T09:28:36;17.70;83.10
52575;DHT22;38468;48.114;-1.684;2022-11-12T09:30:40;17.70;82.70
52575;DHT22;38468;48.114;-1.684;2022-11-12T09:32:41;17.80;83.00
52575;DHT22;38468;48.114;-1.684;2022-11-12T09:34:41;17.90;82.40
52575;DHT22;38468;48.114;-1.684;2022-11-12T09:36:42;18.00;82.90
52575;DHT22;38468;48.114;-1.684;2022-11-12T09:38:42;18.00;81.50
52575;DHT22;38468;48.114;-1.684;2022-11-12T09:42:51;18.20;81.50
52575;DHT22;38468;48.114;-1.684;2022-11-12T09:45:12;18.10;80.00
52575;DHT22;38468;48.114;-1.684;2022-11-12T09:47:18;18.30;81.30
52575;DHT22;38468;48.114;-1.684;2022-11-12T09:51:38;18.30;80.30
52575;DHT22;38468;48.114;-1.684;2022-11-12T09:53:58;18.10;78.70
52575;DHT22;38468;48.114;-1.684;2022-11-12T09:55:59;18.00;78.80
52575;DHT22;38468;48.114;-1.684;2022-11-12T09:58:01;18.00;78.90
52575;DHT22;38468;48.114;-1.684;2022-11-12T10:00:18;18.10;80.20
52575;DHT22;38468;48.114;-1.684;2022-11-12T10:06:57;18.50;76.60
52575;DHT22;38468;48.114;-1.684;2022-11-12T10:09:19;18.60;77.90
52575;DHT22;38468;48.114;-1.684;2022-11-12T10:17:17;18.90;78.10
52575;DHT22;38468;48.114;-1.684;2022-11-12T10:19:43;19.00;79.50
52575;DHT22;38468;48.114;-1.684;2022-11-12T10:24:05;18.80;76.40
52575;DHT22;38468;48.114;-1.684;2022-11-12T10:26:12;18.60;77.50
52575;DHT22;38468;48.114;-1.684;2022-11-12T10:30:39;18.40;76.80
52575;DHT22;38468;48.114;-1.684;2022-11-12T10:32:43;18.30;76.50
52575;DHT22;38468;48.114;-1.684;2022-11-12T10:34:44;18.20;76.70
52575;DHT22;38468;48.114;-1.684;2022-11-12T10:37:00;18.40;76.30
52575;DHT22;38468;48.114;-1.684;2022-11-12T10:39:01;18.40;76.00
52575;DHT22;38468;48.114;-1.684;2022-11-12T10:41:27;18.20;74.70
52575;DHT22;38468;48.114;-1.684;2022-11-12T10:43:30;18.20;75.50
52575;DHT22;38468;48.114;-1.684;2022-11-12T10:45:30;18.30;75.60
52575;DHT22;38468;48.114;-1.684;2022-11-12T10:47:34;18.40;74.90
52575;DHT22;38468;48.114;-1.684;2022-11-12T10:49:40;18.40;75.90
52575;DHT22;38468;48.114;-1.684;2022-11-12T10:51:41;18.40;75.70
52575;DHT22;38468;48.114;-1.684;2022-11-12T10:53:53;18.50;75.40
52575;DHT22;38468;48.114;-1.684;2022-11-12T10:55:59;18.70;75.90
52575;DHT22;38468;48.114;-1.684;2022-11-12T11:02:17;19.00;75.20
52575;DHT22;38468;48.114;-1.684;2022-11-12T11:04:35;19.10;74.90
52575;DHT22;38468;48.114;-1.684;2022-11-12T11:06:36;19.10;71.40
52575;DHT22;38468;48.114;-1.684;2022-11-12T11:08:42;19.10;73.20
52575;DHT22;38468;48.114;-1.684;2022-11-12T11:10:43;19.30;73.50
52575;DHT22;38468;48.114;-1.684;2022-11-12T11:12:44;19.70;74.30
52575;DHT22;38468;48.114;-1.684;2022-11-12T11:14:44;20.40;74.70
52575;DHT22;38468;48.114;-1.684;2022-11-12T11:16:53;21.00;72.80
52575;DHT22;38468;48.114;-1.684;2022-11-12T11:19:05;21.50;72.90
52575;DHT22;38468;48.114;-1.684;2022-11-12T11:23:29;22.20;68.20
52575;DHT22;38468;48.114;-1.684;2022-11-12T11:25:34;22.30;69.00
52575;DHT22;38468;48.114;-1.684;2022-11-12T11:27:54;22.60;70.00
52575;DHT22;38468;48.114;-1.684;2022-11-12T11:30:12;22.90;65.70
52575;DHT22;38468;48.114;-1.684;2022-11-12T11:37:30;22.60;68.90
52575;DHT22;38468;48.114;-1.684;2022-11-12T11:53:38;22.40;67.50
52575;DHT22;38468;48.114;-1.684;2022-11-12T11:55:56;22.30;67.90
52575;DHT22;38468;48.114;-1.684;2022-11-12T11:58:35;22.30;65.70
52575;DHT22;38468;48.114;-1.684;2022-11-12T12:03:43;22.10;67.20
52575;DHT22;38468;48.114;-1.684;2022-11-12T12:08:05;22.20;68.10
52575;DHT22;38468;48.114;-1.684;2022-11-12T12:21:43;22.10;67.40
52575;DHT22;38468;48.114;-1.684;2022-11-12T12:23:45;22.30;67.10
52575;DHT22;38468;48.114;-1.684;2022-11-12T12:25:48;22.30;67.30
52575;DHT22;38468;48.114;-1.684;2022-11-12T12:27:56;22.50;67.30
52575;DHT22;38468;48.114;-1.684;2022-11-12T12:30:19;22.50;66.80
52575;DHT22;38468;48.114;-1.684;2022-11-12T12:32:42;22.80;68.20
52575;DHT22;38468;48.114;-1.684;2022-11-12T12:34:49;22.90;67.10
52575;DHT22;38468;48.114;-1.684;2022-11-12T12:36:58;23.10;67.90
52575;DHT22;38468;48.114;-1.684;2022-11-12T12:39:17;23.30;68.00
52575;DHT22;38468;48.114;-1.684;2022-11-12T12:42:11;23.50;69.20
52575;DHT22;38468;48.114;-1.684;2022-11-12T12:43:56;23.50;66.90
52575;DHT22;38468;48.114;-1.684;2022-11-12T12:45:58;23.40;67.70
52575;DHT22;38468;48.114;-1.684;2022-11-12T12:48:00;23.30;65.70
52575;DHT22;38468;48.114;-1.684;2022-11-12T12:50:09;23.30;66.40
52575;DHT22;38468;48.114;-1.684;2022-11-12T12:52:13;23.10;65.90
52575;DHT22;38468;48.114;-1.684;2022-11-12T12:56:44;23.10;65.30
52575;DHT22;38468;48.114;-1.684;2022-11-12T12:58:46;23.10;65.70
52575;DHT22;38468;48.114;-1.684;2022-11-12T13:00:55;23.10;65.30
52575;DHT22;38468;48.114;-1.684;2022-11-12T13:02:56;23.00;64.10
52575;DHT22;38468;48.114;-1.684;2022-11-12T13:04:57;23.00;64.60
52575;DHT22;38468;48.114;-1.684;2022-11-12T13:06:58;22.90;64.20
52575;DHT22;38468;48.114;-1.684;2022-11-12T13:10:59;22.70;64.50
52575;DHT22;38468;48.114;-1.684;2022-11-12T13:13:03;22.80;64.50
52575;DHT22;38468;48.114;-1.684;2022-11-12T13:15:13;22.80;65.10
52575;DHT22;38468;48.114;-1.684;2022-11-12T13:17:41;22.90;64.90
52575;DHT22;38468;48.114;-1.684;2022-11-12T13:26:57;23.10;64.20
52575;DHT22;38468;48.114;-1.684;2022-11-12T13:29:50;23.20;64.40
52575;DHT22;38468;48.114;-1.684;2022-11-12T13:31:44;23.20;64.20
52575;DHT22;38468;48.114;-1.684;2022-11-12T13:33:44;23.30;63.90
52575;DHT22;38468;48.114;-1.684;2022-11-12T13:35:45;23.30;64.00
52575;DHT22;38468;48.114;-1.684;2022-11-12T13:37:52;23.30;63.80
52575;DHT22;38468;48.114;-1.684;2022-11-12T13:39:53;23.30;63.40
52575;DHT22;38468;48.114;-1.684;2022-11-12T13:41:58;23.30;64.20
52575;DHT22;38468;48.114;-1.684;2022-11-12T13:44:17;23.40;64.00
52575;DHT22;38468;48.114;-1.684;2022-11-12T13:46:31;23.30;63.40
52575;DHT22;38468;48.114;-1.684;2022-11-12T13:50:36;23.20;63.50
52575;DHT22;38468;48.114;-1.684;2022-11-12T13:52:38;23.20;63.10
52575;DHT22;38468;48.114;-1.684;2022-11-12T13:54:39;23.20;63.40
52575;DHT22;38468;48.114;-1.684;2022-11-12T13:56:40;23.20;63.20
52575;DHT22;38468;48.114;-1.684;2022-11-12T13:58:41;23.20;63.50
52575;DHT22;38468;48.114;-1.684;2022-11-12T14:00:51;23.20;62.90
52575;DHT22;38468;48.114;-1.684;2022-11-12T14:04:53;23.10;63.00
52575;DHT22;38468;48.114;-1.684;2022-11-12T14:17:14;23.00;63.10